ラロトンガ国際空港の過去48時間の天気

ラロトンガ国際空港 (Rarotonga)

現在時刻: 9/22 11:19 -10 (9/22 21:19 UTC) 以下の時間は現地時間です。

過去48時間のMETAR気象情報
時間 風向 風速(m/s) 視程 気温(℃) 湿度(%) 気圧(hPa) 天気現象
22 11:00 3 10km以上 23 89 1017 弱い雨
22 10:30 南南西 3 10km以上 24 83 1017
22 10:00 東南東 2 10km以上 24 78 1017
22 09:30 東南東 1 10km以上 23 83 1017
22 09:00 北東 1 10km以上 23 89 1017
22 08:30 西南西 1 10km以上 22 94 1016
22 08:00 1 10km以上 22 94 1016
22 07:30 南東 1 10km以上 21 100 1015
22 07:00 南南東 1 10km以上 20 100 1015
22 06:30 1 10km以上 21 100 1015
22 06:00 南南西 1 10km以上 21 94 1015
22 05:30 南南東 1 10km以上 20 100 1014
22 05:00 南南西 1 10km以上 20 100 1014
22 04:30 1 10km以上 20 100 1014
22 04:00 1 10km以上 21 94 1014
22 03:30 南南東 1 10km以上 21 94 1014
22 03:00 南東 1 10km以上 21 94 1014
22 02:30 南南西 2 10km以上 21 100 1015
22 02:00 1 10km以上 21 100 1015
22 01:30 1 10km以上 21 94 1015 弱い雨
22 01:00 静穏 0 10km以上 21 94 1015
22 00:30 1 10km以上 21 94 1015
22 00:00 1 10km以上 21 94 1015
21 23:30 1 10km以上 22 88 1015
21 23:00 南南西 1 10km以上 22 88 1016
21 22:30 東南東 1 10km以上 22 88 1016
21 22:00 南東 1 10km以上 22 88 1016
21 21:30 静穏 0 10km以上 22 88 1016
21 21:00 東北東 1 10km以上 22 88 1016
21 20:30 南東 2 10km以上 22 88 1015
21 20:00 南南東 1 10km以上 21 94 1015
21 19:30 南南西 1 10km以上 22 88 1015
21 19:00 1 10km以上 22 88 1015
21 18:30 1 10km以上 23 89 1014
21 18:00 南南西 1 10km以上 24 83 1014
21 17:30 西南西 1 10km以上 24 78 1014
21 17:00 西南西 1 10km以上 24 74 1014
21 16:30 南西 2 10km以上 24 78 1014
21 16:00 北西 1 10km以上 24 83 1014
21 15:30 南南西 1 10km以上 23 89 1014
21 15:00 南西 2 10km以上 23 89 1014
21 14:30 西北西 1 10km以上 22 88 1014
21 14:00 東北東 2 10km以上 22 94 1015 弱い雨
21 13:30 2 8000m 22 94 1015 弱い雨
21 13:00 2 10km以上 22 94 1015 弱い雨
21 12:30 3 7000m 21 94 1015 弱い雨
21 12:00 東北東 2 7000m 22 94 1015 弱い雨
21 11:30 西 1 5000m 22 94 1016 弱い雨 煙霧
21 11:00 西南西 1 8000m 22 94 1016 弱い雨
21 10:30 西南西 2 10km以上 21 94 1016 弱い雨
21 10:00 南西 2 10km以上 21 94 1016 弱い雨
21 09:30 南西 1 7000m 21 88 1016 強い雨
21 09:00 南西 1 5000m 21 88 1016 雨 煙霧
21 08:30 西 2 10km以上 21 88 1016 弱い雨
21 08:00 南東 1 10km以上 21 88 1015 弱い雨
21 07:30 2 10km以上 21 88 1015
21 07:00 西 1 10km以上 20 94 1015 弱い雨
21 06:30 南南西 1 10km以上 20 94 1014 弱い雨
21 06:00 1 10km以上 20 94 1014
21 05:30 1 10km以上 20 94 1014
21 05:00 4 5000m 20 94 1014 弱い雨 煙霧
21 04:30 北東 5 3700m 21 88 1014 雨 煙霧
21 04:00 2 10km以上 22 73 1013 弱い雨
21 03:30 東南東 2 10km以上 22 73 1013
21 03:00 2 10km以上 22 73 1013
21 02:30 東南東 2 10km以上 22 73 1014
21 02:00 2 10km以上 22 73 1014
21 01:30 3 10km以上 22 73 1014
21 01:00 3 10km以上 21 73 1014
21 00:30 2 10km以上 21 73 1015
21 00:00 東南東 2 10km以上 21 73 1015
20 23:30 東南東 2 10km以上 21 73 1015
20 23:00 2 10km以上 20 78 1015
20 22:30 東南東 2 10km以上 21 73 1015
20 22:00 東南東 2 10km以上 20 78 1016
20 21:30 東南東 2 10km以上 20 73 1016
20 21:00 東南東 2 10km以上 20 73 1015
20 20:30 2 10km以上 20 73 1015
20 20:00 東南東 2 10km以上 21 69 1015
20 19:30 東南東 2 10km以上 21 69 1015
20 19:00 2 10km以上 21 69 1014
20 18:30 東北東 4 10km以上 22 65 1014
20 18:00 東北東 4 10km以上 23 61 1014
20 17:30 東北東 4 10km以上 23 61 1014
20 17:00 東北東 4 10km以上 24 57 1014
20 16:30 北東 4 10km以上 23 61 1014
20 16:00 北東 4 10km以上 24 57 1014
20 15:30 東北東 4 10km以上 25 57 1014
20 15:00 北東 4 10km以上 24 57 1014
20 14:30 北東 4 10km以上 24 57 1014
20 14:00 北東 4 10km以上 23 61 1014
20 13:30 北東 4 10km以上 24 57 1014
20 13:00 北東 4 10km以上 23 65 1014
20 12:30 北東 4 10km以上 23 61 1015
20 12:00 北東 5 10km以上 24 57 1015
20 11:30 北東 4 10km以上 24 57 1015
NCRG 222100Z AUTO 18005KT 100V240 9999 -RA FEW016/// BKN040/// OVC050/// 23/21 Q1017
NCRG 222030Z AUTO 21005KT 150V270 9999 BKN019/// BKN026/// BKN050/// 24/21 Q1017
NCRG 222000Z AUTO 12003KT 060V230 9999 BKN038/// BKN050/// 24/20 Q1017
NCRG 221930Z AUTO 12002KT 9999 FEW018/// SCT044/// 23/20 Q1017
NCRG 221900Z AUTO 05001KT 9999 FEW009/// SCT019/// 23/21 Q1017
NCRG 221830Z AUTO 24002KT 9999 NCD 22/21 Q1016
NCRG 221800Z AUTO 17002KT 9999 NCD 22/21 Q1016
NCRG 221730Z AUTO 14001KT 9999 SCT030/// SCT040/// 21/21 Q1015
NCRG 221700Z AUTO 16001KT 9999 FEW040/// 20/20 Q1015
NCRG 221630Z AUTO 18001KT 9999 FEW040/// 21/21 Q1015
NCRG 221600Z AUTO 20001KT 9999 NCD 21/20 Q1015
NCRG 221530Z AUTO 15001KT 9999 NCD 20/20 Q1014
NCRG 221500Z AUTO 20002KT 9999 NCD 20/20 Q1014
NCRG 221430Z AUTO 10002KT 9999 FEW050/// 20/20 Q1014
NCRG 221400Z AUTO 18002KT 9999 NCD 21/20 Q1014
NCRG 221330Z AUTO 15002KT 9999 SCT048/// 21/20 Q1014
NCRG 221300Z AUTO 13001KT 9999 FEW028/// SCT046/// BKN060/// 21/20 Q1014
NCRG 221230Z AUTO 20003KT 9999 FEW032/// OVC046/// 21/21 Q1015
NCRG 221200Z AUTO 17001KT 9999 SCT035/// OVC043/// 21/21 Q1015
NCRG 221130Z AUTO 17001KT 9999 -RA BKN031/// OVC046/// 21/20 Q1015
NCRG 221100Z AUTO 00000KT 9999 SCT031/// BKN046/// 21/20 Q1015
NCRG 221030Z AUTO 19002KT 9999 NCD 21/20 Q1015
NCRG 221000Z AUTO 19002KT 9999 FEW065/// 21/20 Q1015
NCRG 220930Z AUTO 09002KT 9999 SCT031/// BKN060/// 22/20 Q1015
NCRG 220900Z AUTO 21001KT 9999 OVC034/// 22/20 Q1016
NCRG 220830Z AUTO 12001KT 9999 BKN037/// BKN048/// 22/20 Q1016
NCRG 220800Z AUTO 14002KT 9999 BKN041/// 22/20 Q1016
NCRG 220730Z AUTO 00000KT 9999 SCT046/// 22/20 Q1016
NCRG 220700Z AUTO 07001KT 9999 FEW034/// OVC050/// 22/20 Q1016
NCRG 220630Z AUTO 14003KT 9999 BKN050/// 22/20 Q1015
NCRG 220600Z AUTO 16002KT 9999 SCT026/// BKN060/// 21/20 Q1015
NCRG 220530Z AUTO 21001KT 9999 FEW095/// 22/20 Q1015
NCRG 220500Z AUTO 19002KT 9999 FEW100/// 22/20 Q1015
NCRG 220430Z AUTO 17001KT 9999 SCT070/// 23/21 Q1014
NCRG 220400Z AUTO 20001KT 9999 FEW002/// BKN032/// BKN070/// 24/21 Q1014
NCRG 220330Z AUTO 25001KT 9999 OVC032/// 24/20 Q1014
NCRG 220300Z AUTO 25002KT 9999 SCT035/// BKN060/// OVC075/// 24/19 Q1014
NCRG 220230Z AUTO 23003KT 180V280 9999 BKN060/// BKN075/// 24/20 Q1014
NCRG 220200Z AUTO 31001KT 9999 NCD 24/21 Q1014
NCRG 220130Z AUTO 21002KT 9999 FEW010/// SCT037/// 23/21 Q1014
NCRG 220100Z AUTO 23003KT 180V270 9999 SCT010/// BKN040/// 23/21 Q1014
NCRG 220030Z AUTO 30002KT 9999 BKN010/// BKN029/// 22/20 Q1014
NCRG 220000Z AUTO 07003KT 9999 -RA BKN023/// BKN031/// BKN047/// 22/21 Q1015
NCRG 212330Z AUTO 08004KT 040V150 8000 -RA FEW008/// BKN024/// OVC036/// 22/21 Q1015
NCRG 212300Z AUTO 09004KT 9999 -RA SCT008/// BKN018/// OVC024/// 22/21 Q1015
NCRG 212230Z AUTO 08006KT 7000 -RA FEW005/// BKN030/// OVC036/// 21/20 Q1015
NCRG 212200Z AUTO 06003KT 360V120 7000 -RA BKN008/// BKN020/// 22/21 Q1015
NCRG 212130Z AUTO 28002KT 5000 -RA HZ FEW006/// BKN022/// OVC038/// 22/21 Q1016
NCRG 212100Z AUTO 25002KT 8000 -RA FEW027/// BKN036/// BKN044/// 22/21 Q1016
NCRG 212030Z AUTO 24003KT 200V290 9999 -RA SCT024/// BKN031/// BKN038/// 21/20 Q1016
NCRG 212000Z AUTO 22003KT 170V280 9999 -RA FEW017/// BKN023/// BKN050/// 21/20 Q1016 RERA
NCRG 211930Z AUTO 23002KT 7000 +RA SCT017/// BKN023/// OVC028/// 21/19 Q1016 RERA
NCRG 211900Z AUTO 22001KT 5000 RA HZ BKN017/// 21/19 Q1016
NCRG 211830Z AUTO 28003KT 240V320 9999 -RA SCT022/// BKN030/// BKN044/// 21/19 Q1016
NCRG 211800Z AUTO 13002KT 9999 -RA SCT028/// SCT035/// BKN042/// 21/19 Q1015
NCRG 211730Z AUTO 10004KT 060V160 9999 BKN041/// OVC050/// 21/19 Q1015
NCRG 211700Z AUTO 26001KT 9999 -RA FEW025/// BKN032/// BKN043/// 20/19 Q1015
NCRG 211630Z AUTO 20002KT 9999 -RA SCT037/// BKN046/// OVC055/// 20/19 Q1014
NCRG 211600Z AUTO 08001KT 9999 BKN037/// OVC049/// 20/19 Q1014
NCRG 211530Z AUTO 08002KT 9999 BKN050/// 20/19 Q1014
NCRG 211500Z AUTO 09007KT 5000 -RA HZ FEW008/// SCT034/// OVC047/// 20/19 Q1014
NCRG 211430Z AUTO 04010KT 010V070 3700 RA HZ FEW008/// BKN027/// OVC055/// 21/19 Q1014
NCRG 211400Z AUTO 10004KT 080V150 9999 -RA FEW023/// OVC040/// 22/17 Q1013
NCRG 211330Z AUTO 11004KT 9999 SCT029/// BKN041/// OVC065/// 22/17 Q1013
NCRG 211300Z AUTO 10004KT 9999 FEW029/// BKN047/// 22/17 Q1013
NCRG 211230Z AUTO 11004KT 080V150 9999 FEW035/// BKN046/// OVC090/// 22/17 Q1014
NCRG 211200Z AUTO 10003KT 9999 BKN090/// 22/17 Q1014
NCRG 211130Z AUTO 09005KT 9999 BKN090/// OVC100/// 22/17 Q1014
NCRG 211100Z AUTO 10005KT 9999 BKN100/// 21/16 Q1014
NCRG 211030Z AUTO 09004KT 9999 BKN095/// 21/16 Q1015
NCRG 211000Z AUTO 11004KT 9999 BKN090/// 21/16 Q1015
NCRG 210930Z AUTO 11003KT 9999 NCD 21/16 Q1015
NCRG 210900Z AUTO 10003KT 9999 SCT100/// 20/16 Q1015
NCRG 210830Z AUTO 12004KT 9999 FEW095/// 21/16 Q1015
NCRG 210800Z AUTO 11003KT 9999 SCT090/// 20/16 Q1016
NCRG 210730Z AUTO 11003KT 9999 BKN095/// 20/15 Q1016
NCRG 210700Z AUTO 11003KT 9999 SCT095/// 20/15 Q1015
NCRG 210630Z AUTO 10003KT 9999 NCD 20/15 Q1015
NCRG 210600Z AUTO 11003KT 9999 NCD 21/15 Q1015
NCRG 210530Z AUTO 11004KT 080V150 9999 NCD 21/15 Q1015
NCRG 210500Z AUTO 10004KT 070V140 9999 FEW035/// 21/15 Q1014
NCRG 210430Z AUTO 07007KT 9999 FEW095/// 22/15 Q1014
NCRG 210400Z AUTO 07008KT 9999 FEW002/// 23/15 Q1014
NCRG 210330Z AUTO 06008KT 9999 FEW035/// 23/15 Q1014
NCRG 210300Z AUTO 06008KT 9999 NCD 24/15 Q1014
NCRG 210230Z AUTO 05007KT 030V090 9999 FEW037/// BKN045/// 23/15 Q1014
NCRG 210200Z AUTO 05007KT 010V080 9999 FEW002/// SCT042/// 24/15 Q1014
NCRG 210130Z AUTO 07007KT 010V090 9999 BKN045/// 25/16 Q1014
NCRG 210100Z AUTO 04007KT 010V100 9999 BKN038/// BKN050/// 24/15 Q1014
NCRG 210030Z AUTO 04008KT 9999 OVC042/// 24/15 Q1014
NCRG 210000Z AUTO 05008KT 020V080 9999 BKN044/// 23/15 Q1014
NCRG 202330Z AUTO 05008KT 9999 BKN043/// 24/15 Q1014
NCRG 202300Z AUTO 05007KT 9999 OVC039/// 23/16 Q1014
NCRG 202230Z AUTO 04008KT 9999 BKN044/// BKN055/// 23/15 Q1015
NCRG 202200Z AUTO 05009KT 9999 BKN042/// BKN050/// 24/15 Q1015
NCRG 202130Z AUTO 05007KT 9999 BKN040/// BKN048/// 24/15 Q1015